sensor_id;sensor_type;location;lat;lon;timestamp;P1;durP1;ratioP1;P2;durP2;ratioP2
30707;SDS011;17458;48.958;8.284;2023-04-25T00:02:16;7.68;;;3.45;;
30707;SDS011;17458;48.958;8.284;2023-04-25T00:05:01;9.55;;;3.38;;
30707;SDS011;17458;48.958;8.284;2023-04-25T00:07:47;6.25;;;3.97;;
30707;SDS011;17458;48.958;8.284;2023-04-25T00:10:31;6.75;;;3.38;;
30707;SDS011;17458;48.958;8.284;2023-04-25T00:13:15;5.25;;;3.67;;
30707;SDS011;17458;48.958;8.284;2023-04-25T00:16:01;5.85;;;3.75;;
30707;SDS011;17458;48.958;8.284;2023-04-25T00:18:46;4.88;;;3.22;;
30707;SDS011;17458;48.958;8.284;2023-04-25T00:21:35;6.55;;;3.35;;
30707;SDS011;17458;48.958;8.284;2023-04-25T00:24:21;3.45;;;3.15;;
30707;SDS011;17458;48.958;8.284;2023-04-25T00:27:05;4.13;;;3.67;;
30707;SDS011;17458;48.958;8.284;2023-04-25T00:29:49;9.88;;;3.70;;
30707;SDS011;17458;48.958;8.284;2023-04-25T00:32:34;3.90;;;3.50;;
30707;SDS011;17458;48.958;8.284;2023-04-25T00:35:18;4.00;;;3.15;;
30707;SDS011;17458;48.958;8.284;2023-04-25T00:38:02;3.58;;;3.00;;
30707;SDS011;17458;48.958;8.284;2023-04-25T00:40:46;4.57;;;3.10;;
30707;SDS011;17458;48.958;8.284;2023-04-25T00:43:30;4.07;;;3.30;;
30707;SDS011;17458;48.958;8.284;2023-04-25T00:46:15;3.78;;;3.25;;
30707;SDS011;17458;48.958;8.284;2023-04-25T00:48:59;3.70;;;3.35;;
30707;SDS011;17458;48.958;8.284;2023-04-25T00:51:43;5.68;;;3.13;;
30707;SDS011;17458;48.958;8.284;2023-04-25T00:54:28;3.38;;;3.08;;
30707;SDS011;17458;48.958;8.284;2023-04-25T00:57:13;9.02;;;3.47;;
30707;SDS011;17458;48.958;8.284;2023-04-25T00:59:57;3.22;;;2.67;;
30707;SDS011;17458;48.958;8.284;2023-04-25T01:02:42;5.28;;;3.63;;
30707;SDS011;17458;48.958;8.284;2023-04-25T01:05:28;5.78;;;3.08;;
30707;SDS011;17458;48.958;8.284;2023-04-25T01:08:13;5.72;;;3.83;;
30707;SDS011;17458;48.958;8.284;2023-04-25T01:10:57;5.43;;;3.25;;
30707;SDS011;17458;48.958;8.284;2023-04-25T01:13:42;6.10;;;3.38;;
30707;SDS011;17458;48.958;8.284;2023-04-25T01:16:26;4.75;;;3.72;;
30707;SDS011;17458;48.958;8.284;2023-04-25T01:19:11;3.53;;;3.22;;
30707;SDS011;17458;48.958;8.284;2023-04-25T01:22:00;4.53;;;3.50;;
30707;SDS011;17458;48.958;8.284;2023-04-25T01:24:44;4.18;;;3.25;;
30707;SDS011;17458;48.958;8.284;2023-04-25T01:27:29;5.00;;;3.67;;
30707;SDS011;17458;48.958;8.284;2023-04-25T01:30:14;3.78;;;3.40;;
30707;SDS011;17458;48.958;8.284;2023-04-25T01:32:59;6.30;;;3.88;;
30707;SDS011;17458;48.958;8.284;2023-04-25T01:35:46;4.68;;;3.38;;
30707;SDS011;17458;48.958;8.284;2023-04-25T01:38:30;5.20;;;3.80;;
30707;SDS011;17458;48.958;8.284;2023-04-25T01:41:15;5.35;;;3.78;;
30707;SDS011;17458;48.958;8.284;2023-04-25T01:44:01;7.80;;;4.53;;
30707;SDS011;17458;48.958;8.284;2023-04-25T01:46:46;11.93;;;3.75;;
30707;SDS011;17458;48.958;8.284;2023-04-25T01:49:29;7.72;;;3.60;;
30707;SDS011;17458;48.958;8.284;2023-04-25T01:52:14;5.65;;;3.45;;
30707;SDS011;17458;48.958;8.284;2023-04-25T01:54:59;4.20;;;3.80;;
30707;SDS011;17458;48.958;8.284;2023-04-25T01:57:46;4.55;;;3.42;;
30707;SDS011;17458;48.958;8.284;2023-04-25T02:00:31;4.15;;;3.03;;
30707;SDS011;17458;48.958;8.284;2023-04-25T02:03:14;4.43;;;4.03;;
30707;SDS011;17458;48.958;8.284;2023-04-25T02:05:58;10.50;;;3.97;;
30707;SDS011;17458;48.958;8.284;2023-04-25T02:08:43;4.97;;;3.95;;
30707;SDS011;17458;48.958;8.284;2023-04-25T02:11:29;5.20;;;3.83;;
30707;SDS011;17458;48.958;8.284;2023-04-25T02:14:32;5.93;;;3.65;;
30707;SDS011;17458;48.958;8.284;2023-04-25T02:17:21;4.50;;;4.05;;
30707;SDS011;17458;48.958;8.284;2023-04-25T02:20:05;3.95;;;3.25;;
30707;SDS011;17458;48.958;8.284;2023-04-25T02:22:50;3.60;;;3.30;;
30707;SDS011;17458;48.958;8.284;2023-04-25T02:25:35;4.53;;;3.83;;
30707;SDS011;17458;48.958;8.284;2023-04-25T02:28:19;4.75;;;3.97;;
30707;SDS011;17458;48.958;8.284;2023-04-25T02:31:03;6.25;;;4.53;;
30707;SDS011;17458;48.958;8.284;2023-04-25T02:33:48;8.55;;;5.65;;
30707;SDS011;17458;48.958;8.284;2023-04-25T02:36:32;7.88;;;5.13;;
30707;SDS011;17458;48.958;8.284;2023-04-25T02:39:17;4.22;;;3.40;;
30707;SDS011;17458;48.958;8.284;2023-04-25T02:42:02;4.30;;;3.55;;
30707;SDS011;17458;48.958;8.284;2023-04-25T02:44:47;4.90;;;3.92;;
30707;SDS011;17458;48.958;8.284;2023-04-25T02:47:31;6.00;;;3.72;;
30707;SDS011;17458;48.958;8.284;2023-04-25T02:50:15;5.43;;;3.67;;
30707;SDS011;17458;48.958;8.284;2023-04-25T02:52:59;7.75;;;3.60;;
30707;SDS011;17458;48.958;8.284;2023-04-25T02:55:49;4.05;;;3.70;;
30707;SDS011;17458;48.958;8.284;2023-04-25T02:58:33;5.03;;;3.70;;
30707;SDS011;17458;48.958;8.284;2023-04-25T03:01:17;5.10;;;3.78;;
30707;SDS011;17458;48.958;8.284;2023-04-25T03:04:01;5.07;;;3.40;;
30707;SDS011;17458;48.958;8.284;2023-04-25T03:06:46;6.05;;;3.83;;
30707;SDS011;17458;48.958;8.284;2023-04-25T03:09:30;3.97;;;3.00;;
30707;SDS011;17458;48.958;8.284;2023-04-25T03:12:15;3.42;;;3.13;;
30707;SDS011;17458;48.958;8.284;2023-04-25T03:14:59;4.05;;;3.42;;
30707;SDS011;17458;48.958;8.284;2023-04-25T03:17:43;5.70;;;3.45;;
30707;SDS011;17458;48.958;8.284;2023-04-25T03:20:27;4.45;;;3.80;;
30707;SDS011;17458;48.958;8.284;2023-04-25T03:23:11;4.75;;;3.75;;
30707;SDS011;17458;48.958;8.284;2023-04-25T03:25:58;5.22;;;4.63;;
30707;SDS011;17458;48.958;8.284;2023-04-25T03:28:42;5.95;;;4.28;;
30707;SDS011;17458;48.958;8.284;2023-04-25T03:31:26;3.58;;;3.28;;
30707;SDS011;17458;48.958;8.284;2023-04-25T03:34:11;3.83;;;3.40;;
30707;SDS011;17458;48.958;8.284;2023-04-25T03:36:55;6.25;;;4.20;;
30707;SDS011;17458;48.958;8.284;2023-04-25T03:39:39;5.50;;;3.58;;
30707;SDS011;17458;48.958;8.284;2023-04-25T03:42:24;4.07;;;3.67;;
30707;SDS011;17458;48.958;8.284;2023-04-25T03:45:08;4.10;;;3.25;;
30707;SDS011;17458;48.958;8.284;2023-04-25T03:47:53;4.43;;;3.67;;
30707;SDS011;17458;48.958;8.284;2023-04-25T03:50:37;4.43;;;4.03;;
30707;SDS011;17458;48.958;8.284;2023-04-25T03:53:22;4.85;;;3.65;;
30707;SDS011;17458;48.958;8.284;2023-04-25T03:56:34;4.47;;;3.75;;
30707;SDS011;17458;48.958;8.284;2023-04-25T03:59:28;3.95;;;3.58;;
30707;SDS011;17458;48.958;8.284;2023-04-25T04:02:12;4.35;;;3.65;;
30707;SDS011;17458;48.958;8.284;2023-04-25T04:04:57;4.43;;;3.88;;
30707;SDS011;17458;48.958;8.284;2023-04-25T04:07:41;4.25;;;3.85;;
30707;SDS011;17458;48.958;8.284;2023-04-25T04:10:27;7.22;;;4.45;;
30707;SDS011;17458;48.958;8.284;2023-04-25T04:13:13;6.10;;;5.18;;
30707;SDS011;17458;48.958;8.284;2023-04-25T04:15:56;5.75;;;4.88;;
30707;SDS011;17458;48.958;8.284;2023-04-25T04:18:41;4.75;;;4.35;;
30707;SDS011;17458;48.958;8.284;2023-04-25T04:21:25;4.70;;;4.18;;
30707;SDS011;17458;48.958;8.284;2023-04-25T04:24:11;4.88;;;4.07;;
30707;SDS011;17458;48.958;8.284;2023-04-25T04:27:13;4.32;;;3.92;;
30707;SDS011;17458;48.958;8.284;2023-04-25T04:30:11;6.47;;;4.32;;
30707;SDS011;17458;48.958;8.284;2023-04-25T04:33:08;4.93;;;3.97;;
30707;SDS011;17458;48.958;8.284;2023-04-25T04:35:52;5.28;;;3.83;;
30707;SDS011;17458;48.958;8.284;2023-04-25T04:38:37;4.55;;;4.13;;
30707;SDS011;17458;48.958;8.284;2023-04-25T04:41:22;5.75;;;3.78;;
30707;SDS011;17458;48.958;8.284;2023-04-25T04:44:19;4.40;;;4.00;;
30707;SDS011;17458;48.958;8.284;2023-04-25T04:47:23;6.63;;;4.78;;
30707;SDS011;17458;48.958;8.284;2023-04-25T04:50:37;4.35;;;3.95;;
30707;SDS011;17458;48.958;8.284;2023-04-25T04:53:33;5.18;;;4.03;;
30707;SDS011;17458;48.958;8.284;2023-04-25T04:56:20;6.50;;;4.28;;
30707;SDS011;17458;48.958;8.284;2023-04-25T04:59:07;5.95;;;3.97;;
30707;SDS011;17458;48.958;8.284;2023-04-25T05:02:09;5.03;;;4.53;;
30707;SDS011;17458;48.958;8.284;2023-04-25T05:05:07;5.50;;;4.63;;
30707;SDS011;17458;48.958;8.284;2023-04-25T05:08:30;7.22;;;4.28;;
30707;SDS011;17458;48.958;8.284;2023-04-25T05:11:31;5.65;;;4.40;;
30707;SDS011;17458;48.958;8.284;2023-04-25T05:14:37;6.68;;;4.20;;
30707;SDS011;17458;48.958;8.284;2023-04-25T05:17:41;5.35;;;4.00;;
30707;SDS011;17458;48.958;8.284;2023-04-25T05:20:43;4.80;;;3.63;;
30707;SDS011;17458;48.958;8.284;2023-04-25T05:23:44;5.85;;;4.40;;
30707;SDS011;17458;48.958;8.284;2023-04-25T05:26:48;5.13;;;4.40;;
30707;SDS011;17458;48.958;8.284;2023-04-25T05:29:57;6.25;;;4.30;;
30707;SDS011;17458;48.958;8.284;2023-04-25T05:32:50;4.95;;;3.58;;
30707;SDS011;17458;48.958;8.284;2023-04-25T05:35:34;4.88;;;4.15;;
30707;SDS011;17458;48.958;8.284;2023-04-25T05:38:18;7.47;;;4.93;;
30707;SDS011;17458;48.958;8.284;2023-04-25T05:41:21;5.90;;;4.10;;
30707;SDS011;17458;48.958;8.284;2023-04-25T05:44:18;7.10;;;5.53;;
30707;SDS011;17458;48.958;8.284;2023-04-25T05:47:23;4.20;;;3.78;;
30707;SDS011;17458;48.958;8.284;2023-04-25T05:50:20;7.88;;;4.25;;
30707;SDS011;17458;48.958;8.284;2023-04-25T05:53:11;4.13;;;3.72;;
30707;SDS011;17458;48.958;8.284;2023-04-25T05:56:00;7.78;;;4.35;;
30707;SDS011;17458;48.958;8.284;2023-04-25T05:58:46;5.07;;;3.72;;
30707;SDS011;17458;48.958;8.284;2023-04-25T06:01:31;4.93;;;4.28;;
30707;SDS011;17458;48.958;8.284;2023-04-25T06:04:15;4.53;;;4.05;;
30707;SDS011;17458;48.958;8.284;2023-04-25T06:06:59;7.07;;;4.35;;
30707;SDS011;17458;48.958;8.284;2023-04-25T06:09:44;4.60;;;4.05;;
30707;SDS011;17458;48.958;8.284;2023-04-25T06:12:28;4.18;;;3.78;;
30707;SDS011;17458;48.958;8.284;2023-04-25T06:15:12;5.25;;;4.65;;
30707;SDS011;17458;48.958;8.284;2023-04-25T06:17:56;12.77;;;4.88;;
30707;SDS011;17458;48.958;8.284;2023-04-25T06:20:40;9.52;;;5.60;;
30707;SDS011;17458;48.958;8.284;2023-04-25T06:23:24;5.57;;;4.68;;
30707;SDS011;17458;48.958;8.284;2023-04-25T06:26:14;6.90;;;4.97;;
30707;SDS011;17458;48.958;8.284;2023-04-25T06:29:01;6.25;;;5.15;;
30707;SDS011;17458;48.958;8.284;2023-04-25T06:31:45;5.00;;;4.07;;
30707;SDS011;17458;48.958;8.284;2023-04-25T06:34:30;7.53;;;5.00;;
30707;SDS011;17458;48.958;8.284;2023-04-25T06:37:14;6.50;;;4.53;;
30707;SDS011;17458;48.958;8.284;2023-04-25T06:39:59;5.75;;;4.75;;
30707;SDS011;17458;48.958;8.284;2023-04-25T06:42:43;6.47;;;5.32;;
30707;SDS011;17458;48.958;8.284;2023-04-25T06:45:48;6.03;;;4.63;;
30707;SDS011;17458;48.958;8.284;2023-04-25T06:48:32;6.18;;;5.57;;
30707;SDS011;17458;48.958;8.284;2023-04-25T06:51:16;6.13;;;5.30;;
30707;SDS011;17458;48.958;8.284;2023-04-25T06:54:02;5.00;;;4.47;;
30707;SDS011;17458;48.958;8.284;2023-04-25T06:56:56;5.07;;;4.57;;
30707;SDS011;17458;48.958;8.284;2023-04-25T06:59:40;5.20;;;4.70;;
30707;SDS011;17458;48.958;8.284;2023-04-25T07:02:26;5.05;;;3.88;;
30707;SDS011;17458;48.958;8.284;2023-04-25T07:05:11;14.05;;;5.55;;
30707;SDS011;17458;48.958;8.284;2023-04-25T07:07:56;7.18;;;5.97;;
30707;SDS011;17458;48.958;8.284;2023-04-25T07:10:40;7.22;;;5.32;;
30707;SDS011;17458;48.958;8.284;2023-04-25T07:13:24;7.93;;;5.65;;
30707;SDS011;17458;48.958;8.284;2023-04-25T07:16:08;6.85;;;5.70;;
30707;SDS011;17458;48.958;8.284;2023-04-25T07:18:53;6.28;;;5.28;;
30707;SDS011;17458;48.958;8.284;2023-04-25T07:21:38;8.10;;;6.25;;
30707;SDS011;17458;48.958;8.284;2023-04-25T07:24:23;7.13;;;5.88;;
30707;SDS011;17458;48.958;8.284;2023-04-25T07:28:08;10.05;;;5.68;;
30707;SDS011;17458;48.958;8.284;2023-04-25T07:30:53;6.35;;;5.75;;
30707;SDS011;17458;48.958;8.284;2023-04-25T07:33:37;5.97;;;5.07;;
30707;SDS011;17458;48.958;8.284;2023-04-25T07:36:22;6.40;;;5.70;;
30707;SDS011;17458;48.958;8.284;2023-04-25T07:39:06;7.28;;;6.05;;
30707;SDS011;17458;48.958;8.284;2023-04-25T07:41:50;8.13;;;6.25;;
30707;SDS011;17458;48.958;8.284;2023-04-25T07:44:40;8.05;;;6.25;;
30707;SDS011;17458;48.958;8.284;2023-04-25T07:47:28;7.78;;;6.43;;
30707;SDS011;17458;48.958;8.284;2023-04-25T07:50:12;12.98;;;6.55;;
30707;SDS011;17458;48.958;8.284;2023-04-25T07:52:56;9.25;;;7.53;;
30707;SDS011;17458;48.958;8.284;2023-04-25T07:55:46;8.88;;;6.50;;
30707;SDS011;17458;48.958;8.284;2023-04-25T07:58:35;10.13;;;6.70;;
30707;SDS011;17458;48.958;8.284;2023-04-25T08:01:22;7.15;;;6.15;;
30707;SDS011;17458;48.958;8.284;2023-04-25T08:04:18;9.60;;;7.15;;
30707;SDS011;17458;48.958;8.284;2023-04-25T08:07:10;9.18;;;8.00;;
30707;SDS011;17458;48.958;8.284;2023-04-25T08:10:07;10.95;;;6.88;;
30707;SDS011;17458;48.958;8.284;2023-04-25T08:12:52;8.30;;;7.20;;
30707;SDS011;17458;48.958;8.284;2023-04-25T08:15:36;8.52;;;6.55;;
30707;SDS011;17458;48.958;8.284;2023-04-25T08:18:20;11.20;;;6.38;;
30707;SDS011;17458;48.958;8.284;2023-04-25T08:21:06;8.63;;;6.57;;
30707;SDS011;17458;48.958;8.284;2023-04-25T08:23:52;7.88;;;6.47;;
30707;SDS011;17458;48.958;8.284;2023-04-25T08:26:41;10.27;;;6.97;;
30707;SDS011;17458;48.958;8.284;2023-04-25T08:29:28;9.20;;;7.65;;
30707;SDS011;17458;48.958;8.284;2023-04-25T08:32:12;10.98;;;8.27;;
30707;SDS011;17458;48.958;8.284;2023-04-25T08:35:03;10.30;;;7.90;;
30707;SDS011;17458;48.958;8.284;2023-04-25T08:37:47;13.77;;;8.90;;
30707;SDS011;17458;48.958;8.284;2023-04-25T08:40:34;17.02;;;8.27;;
30707;SDS011;17458;48.958;8.284;2023-04-25T08:43:25;13.25;;;9.48;;
30707;SDS011;17458;48.958;8.284;2023-04-25T08:46:09;16.35;;;9.13;;
30707;SDS011;17458;48.958;8.284;2023-04-25T08:49:02;11.93;;;9.45;;
30707;SDS011;17458;48.958;8.284;2023-04-25T08:51:46;11.57;;;8.75;;
30707;SDS011;17458;48.958;8.284;2023-04-25T08:54:34;10.88;;;8.65;;
30707;SDS011;17458;48.958;8.284;2023-04-25T08:57:19;9.73;;;7.93;;
30707;SDS011;17458;48.958;8.284;2023-04-25T09:00:06;13.13;;;9.18;;
30707;SDS011;17458;48.958;8.284;2023-04-25T09:02:54;12.15;;;8.15;;
30707;SDS011;17458;48.958;8.284;2023-04-25T09:05:39;10.82;;;8.57;;
30707;SDS011;17458;48.958;8.284;2023-04-25T09:08:24;14.15;;;8.40;;
30707;SDS011;17458;48.958;8.284;2023-04-25T09:11:08;8.90;;;7.53;;
30707;SDS011;17458;48.958;8.284;2023-04-25T09:14:09;9.65;;;7.38;;
30707;SDS011;17458;48.958;8.284;2023-04-25T09:17:10;11.55;;;8.23;;
30707;SDS011;17458;48.958;8.284;2023-04-25T09:20:06;9.40;;;7.53;;
30707;SDS011;17458;48.958;8.284;2023-04-25T09:23:01;14.43;;;8.68;;
30707;SDS011;17458;48.958;8.284;2023-04-25T09:25:50;12.38;;;8.77;;
30707;SDS011;17458;48.958;8.284;2023-04-25T09:28:37;7.70;;;6.78;;
30707;SDS011;17458;48.958;8.284;2023-04-25T09:31:22;9.30;;;7.40;;
30707;SDS011;17458;48.958;8.284;2023-04-25T09:34:09;8.93;;;7.20;;
30707;SDS011;17458;48.958;8.284;2023-04-25T09:37:02;7.47;;;6.57;;
30707;SDS011;17458;48.958;8.284;2023-04-25T09:40:05;9.07;;;6.53;;
30707;SDS011;17458;48.958;8.284;2023-04-25T09:43:22;10.13;;;6.82;;
30707;SDS011;17458;48.958;8.284;2023-04-25T09:46:09;7.97;;;6.85;;
30707;SDS011;17458;48.958;8.284;2023-04-25T09:48:57;8.73;;;7.72;;
30707;SDS011;17458;48.958;8.284;2023-04-25T09:51:56;8.95;;;7.35;;
30707;SDS011;17458;48.958;8.284;2023-04-25T09:54:43;9.07;;;7.10;;
30707;SDS011;17458;48.958;8.284;2023-04-25T09:57:32;13.18;;;6.43;;
30707;SDS011;17458;48.958;8.284;2023-04-25T10:00:17;9.23;;;7.07;;
30707;SDS011;17458;48.958;8.284;2023-04-25T10:03:01;10.23;;;7.35;;
30707;SDS011;17458;48.958;8.284;2023-04-25T10:06:08;7.97;;;6.78;;
30707;SDS011;17458;48.958;8.284;2023-04-25T10:08:56;10.70;;;7.95;;
30707;SDS011;17458;48.958;8.284;2023-04-25T10:11:41;13.48;;;8.18;;
30707;SDS011;17458;48.958;8.284;2023-04-25T10:14:26;7.28;;;6.20;;
30707;SDS011;17458;48.958;8.284;2023-04-25T10:17:11;11.35;;;7.65;;
30707;SDS011;17458;48.958;8.284;2023-04-25T10:19:55;12.73;;;7.90;;
30707;SDS011;17458;48.958;8.284;2023-04-25T10:22:44;10.50;;;8.45;;
30707;SDS011;17458;48.958;8.284;2023-04-25T10:25:30;15.63;;;9.23;;
30707;SDS011;17458;48.958;8.284;2023-04-25T10:28:14;15.75;;;10.55;;
30707;SDS011;17458;48.958;8.284;2023-04-25T10:31:02;15.73;;;11.00;;
30707;SDS011;17458;48.958;8.284;2023-04-25T10:33:47;20.60;;;12.70;;
30707;SDS011;17458;48.958;8.284;2023-04-25T10:36:33;17.80;;;12.10;;
30707;SDS011;17458;48.958;8.284;2023-04-25T10:39:22;20.33;;;14.80;;
30707;SDS011;17458;48.958;8.284;2023-04-25T10:42:07;20.65;;;11.48;;
30707;SDS011;17458;48.958;8.284;2023-04-25T10:45:02;20.10;;;11.73;;
30707;SDS011;17458;48.958;8.284;2023-04-25T10:47:49;11.50;;;8.18;;
30707;SDS011;17458;48.958;8.284;2023-04-25T10:50:39;11.38;;;8.10;;
30707;SDS011;17458;48.958;8.284;2023-04-25T10:53:24;8.32;;;7.07;;
30707;SDS011;17458;48.958;8.284;2023-04-25T10:59:16;9.48;;;6.68;;
30707;SDS011;17458;48.958;8.284;2023-04-25T11:02:02;10.18;;;7.78;;
30707;SDS011;17458;48.958;8.284;2023-04-25T11:04:56;10.38;;;7.72;;
30707;SDS011;17458;48.958;8.284;2023-04-25T11:10:31;8.32;;;6.95;;
30707;SDS011;17458;48.958;8.284;2023-04-25T11:13:16;7.55;;;6.07;;
30707;SDS011;17458;48.958;8.284;2023-04-25T11:16:06;8.55;;;6.82;;
30707;SDS011;17458;48.958;8.284;2023-04-25T11:18:51;11.80;;;6.25;;
30707;SDS011;17458;48.958;8.284;2023-04-25T11:21:35;7.82;;;6.38;;
30707;SDS011;17458;48.958;8.284;2023-04-25T11:24:24;8.65;;;6.15;;
30707;SDS011;17458;48.958;8.284;2023-04-25T11:27:10;8.57;;;6.57;;
30707;SDS011;17458;48.958;8.284;2023-04-25T11:29:54;7.25;;;6.53;;
30707;SDS011;17458;48.958;8.284;2023-04-25T11:32:39;11.18;;;6.65;;
30707;SDS011;17458;48.958;8.284;2023-04-25T11:35:23;9.40;;;6.90;;
30707;SDS011;17458;48.958;8.284;2023-04-25T11:38:09;9.50;;;7.05;;
30707;SDS011;17458;48.958;8.284;2023-04-25T11:40:54;8.00;;;6.20;;
30707;SDS011;17458;48.958;8.284;2023-04-25T11:43:38;7.85;;;6.50;;
30707;SDS011;17458;48.958;8.284;2023-04-25T11:46:22;7.20;;;6.45;;
30707;SDS011;17458;48.958;8.284;2023-04-25T11:49:06;8.10;;;5.60;;
30707;SDS011;17458;48.958;8.284;2023-04-25T11:51:50;6.88;;;5.82;;
30707;SDS011;17458;48.958;8.284;2023-04-25T11:54:37;9.35;;;6.20;;
30707;SDS011;17458;48.958;8.284;2023-04-25T11:57:21;7.10;;;5.93;;
30707;SDS011;17458;48.958;8.284;2023-04-25T12:00:07;9.77;;;6.28;;
30707;SDS011;17458;48.958;8.284;2023-04-25T12:02:56;9.45;;;7.20;;
30707;SDS011;17458;48.958;8.284;2023-04-25T12:05:44;12.20;;;7.65;;
30707;SDS011;17458;48.958;8.284;2023-04-25T12:08:29;12.77;;;7.63;;
30707;SDS011;17458;48.958;8.284;2023-04-25T12:11:22;12.02;;;8.15;;
30707;SDS011;17458;48.958;8.284;2023-04-25T12:14:06;13.18;;;8.02;;
30707;SDS011;17458;48.958;8.284;2023-04-25T12:16:50;12.57;;;8.23;;
30707;SDS011;17458;48.958;8.284;2023-04-25T12:19:35;11.38;;;7.80;;
30707;SDS011;17458;48.958;8.284;2023-04-25T12:22:23;8.00;;;6.55;;
30707;SDS011;17458;48.958;8.284;2023-04-25T12:25:08;7.68;;;6.18;;
30707;SDS011;17458;48.958;8.284;2023-04-25T12:27:53;6.97;;;5.30;;
30707;SDS011;17458;48.958;8.284;2023-04-25T12:33:40;4.97;;;4.45;;
30707;SDS011;17458;48.958;8.284;2023-04-25T12:36:24;9.10;;;5.00;;
30707;SDS011;17458;48.958;8.284;2023-04-25T12:39:16;6.85;;;4.80;;
30707;SDS011;17458;48.958;8.284;2023-04-25T12:42:01;6.55;;;3.95;;
30707;SDS011;17458;48.958;8.284;2023-04-25T12:44:46;6.10;;;4.78;;
30707;SDS011;17458;48.958;8.284;2023-04-25T12:47:30;6.40;;;4.53;;
30707;SDS011;17458;48.958;8.284;2023-04-25T12:50:14;5.05;;;4.32;;
30707;SDS011;17458;48.958;8.284;2023-04-25T12:52:58;7.05;;;4.50;;
30707;SDS011;17458;48.958;8.284;2023-04-25T12:55:42;3.67;;;3.38;;
30707;SDS011;17458;48.958;8.284;2023-04-25T12:58:26;4.28;;;3.83;;
30707;SDS011;17458;48.958;8.284;2023-04-25T13:01:10;7.65;;;4.50;;
30707;SDS011;17458;48.958;8.284;2023-04-25T13:03:56;4.85;;;3.53;;
30707;SDS011;17458;48.958;8.284;2023-04-25T13:06:41;7.25;;;4.03;;
30707;SDS011;17458;48.958;8.284;2023-04-25T13:09:25;5.28;;;3.85;;
30707;SDS011;17458;48.958;8.284;2023-04-25T13:12:09;10.32;;;5.72;;
30707;SDS011;17458;48.958;8.284;2023-04-25T13:14:53;8.00;;;4.30;;
30707;SDS011;17458;48.958;8.284;2023-04-25T13:17:37;10.30;;;4.55;;
30707;SDS011;17458;48.958;8.284;2023-04-25T13:20:22;6.38;;;4.35;;
30707;SDS011;17458;48.958;8.284;2023-04-25T13:23:06;4.10;;;3.72;;
30707;SDS011;17458;48.958;8.284;2023-04-25T13:25:50;3.97;;;3.55;;
30707;SDS011;17458;48.958;8.284;2023-04-25T13:28:34;3.72;;;3.28;;
30707;SDS011;17458;48.958;8.284;2023-04-25T13:31:18;5.97;;;3.78;;
30707;SDS011;17458;48.958;8.284;2023-04-25T13:34:02;5.22;;;4.13;;
30707;SDS011;17458;48.958;8.284;2023-04-25T13:36:47;5.15;;;3.92;;
30707;SDS011;17458;48.958;8.284;2023-04-25T13:39:31;5.85;;;4.88;;
30707;SDS011;17458;48.958;8.284;2023-04-25T13:42:15;5.40;;;3.33;;
30707;SDS011;17458;48.958;8.284;2023-04-25T13:44:59;4.22;;;2.58;;
30707;SDS011;17458;48.958;8.284;2023-04-25T13:47:44;2.95;;;2.75;;
30707;SDS011;17458;48.958;8.284;2023-04-25T13:50:28;2.92;;;2.60;;
30707;SDS011;17458;48.958;8.284;2023-04-25T13:53:11;2.58;;;2.30;;
30707;SDS011;17458;48.958;8.284;2023-04-25T13:55:56;4.25;;;2.33;;
30707;SDS011;17458;48.958;8.284;2023-04-25T13:58:40;5.28;;;2.47;;
30707;SDS011;17458;48.958;8.284;2023-04-25T14:01:23;3.42;;;2.10;;
30707;SDS011;17458;48.958;8.284;2023-04-25T14:04:07;2.58;;;2.00;;
30707;SDS011;17458;48.958;8.284;2023-04-25T14:06:52;2.30;;;2.10;;
30707;SDS011;17458;48.958;8.284;2023-04-25T14:09:36;2.45;;;2.25;;
30707;SDS011;17458;48.958;8.284;2023-04-25T14:12:20;2.33;;;2.03;;
30707;SDS011;17458;48.958;8.284;2023-04-25T14:15:04;4.50;;;2.47;;
30707;SDS011;17458;48.958;8.284;2023-04-25T14:17:49;3.00;;;1.88;;
30707;SDS011;17458;48.958;8.284;2023-04-25T14:20:33;3.60;;;1.88;;
30707;SDS011;17458;48.958;8.284;2023-04-25T14:23:18;3.65;;;2.00;;
30707;SDS011;17458;48.958;8.284;2023-04-25T14:26:02;3.90;;;1.80;;
30707;SDS011;17458;48.958;8.284;2023-04-25T14:28:46;4.57;;;2.67;;
30707;SDS011;17458;48.958;8.284;2023-04-25T14:31:29;6.80;;;2.30;;
30707;SDS011;17458;48.958;8.284;2023-04-25T14:34:13;3.78;;;2.60;;
30707;SDS011;17458;48.958;8.284;2023-04-25T14:36:58;5.15;;;2.47;;
30707;SDS011;17458;48.958;8.284;2023-04-25T14:39:42;4.63;;;1.92;;
30707;SDS011;17458;48.958;8.284;2023-04-25T14:42:26;2.58;;;2.25;;
30707;SDS011;17458;48.958;8.284;2023-04-25T14:45:10;3.42;;;2.88;;
30707;SDS011;17458;48.958;8.284;2023-04-25T14:47:55;5.00;;;2.95;;
30707;SDS011;17458;48.958;8.284;2023-04-25T14:50:39;2.72;;;2.05;;
30707;SDS011;17458;48.958;8.284;2023-04-25T14:53:23;2.45;;;1.83;;
30707;SDS011;17458;48.958;8.284;2023-04-25T14:56:07;4.75;;;2.78;;
30707;SDS011;17458;48.958;8.284;2023-04-25T14:58:52;2.95;;;2.30;;
30707;SDS011;17458;48.958;8.284;2023-04-25T15:01:36;3.80;;;2.72;;
30707;SDS011;17458;48.958;8.284;2023-04-25T15:04:20;8.85;;;3.60;;
30707;SDS011;17458;48.958;8.284;2023-04-25T15:07:05;3.85;;;2.95;;
30707;SDS011;17458;48.958;8.284;2023-04-25T15:09:48;6.88;;;4.03;;
30707;SDS011;17458;48.958;8.284;2023-04-25T15:12:32;7.13;;;3.88;;
30707;SDS011;17458;48.958;8.284;2023-04-25T15:15:16;4.68;;;3.60;;
30707;SDS011;17458;48.958;8.284;2023-04-25T15:18:00;7.30;;;3.53;;
30707;SDS011;17458;48.958;8.284;2023-04-25T15:20:44;5.97;;;3.75;;
30707;SDS011;17458;48.958;8.284;2023-04-25T15:23:28;5.63;;;3.65;;
30707;SDS011;17458;48.958;8.284;2023-04-25T15:26:12;5.63;;;4.68;;
30707;SDS011;17458;48.958;8.284;2023-04-25T15:28:56;7.70;;;4.65;;
30707;SDS011;17458;48.958;8.284;2023-04-25T15:31:40;6.72;;;4.60;;
30707;SDS011;17458;48.958;8.284;2023-04-25T15:34:24;4.80;;;3.83;;
30707;SDS011;17458;48.958;8.284;2023-04-25T15:37:08;7.15;;;5.20;;
30707;SDS011;17458;48.958;8.284;2023-04-25T15:40:00;10.07;;;5.50;;
30707;SDS011;17458;48.958;8.284;2023-04-25T15:42:56;8.25;;;4.38;;
30707;SDS011;17458;48.958;8.284;2023-04-25T15:45:40;4.85;;;3.67;;
30707;SDS011;17458;48.958;8.284;2023-04-25T15:48:24;4.88;;;4.35;;
30707;SDS011;17458;48.958;8.284;2023-04-25T15:51:08;5.50;;;4.68;;
30707;SDS011;17458;48.958;8.284;2023-04-25T15:53:53;9.32;;;5.43;;
30707;SDS011;17458;48.958;8.284;2023-04-25T15:56:37;10.77;;;6.15;;
30707;SDS011;17458;48.958;8.284;2023-04-25T15:59:21;9.60;;;6.00;;
30707;SDS011;17458;48.958;8.284;2023-04-25T16:02:05;5.85;;;4.72;;
30707;SDS011;17458;48.958;8.284;2023-04-25T16:04:49;3.88;;;3.47;;
30707;SDS011;17458;48.958;8.284;2023-04-25T16:07:34;5.75;;;3.83;;
30707;SDS011;17458;48.958;8.284;2023-04-25T16:10:18;8.68;;;4.22;;
30707;SDS011;17458;48.958;8.284;2023-04-25T16:13:05;4.60;;;3.55;;
30707;SDS011;17458;48.958;8.284;2023-04-25T16:15:49;4.30;;;3.38;;
30707;SDS011;17458;48.958;8.284;2023-04-25T16:18:33;6.93;;;4.80;;
30707;SDS011;17458;48.958;8.284;2023-04-25T16:21:16;19.42;;;6.78;;
30707;SDS011;17458;48.958;8.284;2023-04-25T16:24:00;8.13;;;5.85;;
30707;SDS011;17458;48.958;8.284;2023-04-25T16:26:45;3.78;;;2.90;;
30707;SDS011;17458;48.958;8.284;2023-04-25T16:29:29;4.20;;;3.80;;
30707;SDS011;17458;48.958;8.284;2023-04-25T16:32:13;6.88;;;4.60;;
30707;SDS011;17458;48.958;8.284;2023-04-25T16:34:57;5.53;;;4.05;;
30707;SDS011;17458;48.958;8.284;2023-04-25T16:37:41;5.53;;;3.90;;
30707;SDS011;17458;48.958;8.284;2023-04-25T16:40:25;5.50;;;3.97;;
30707;SDS011;17458;48.958;8.284;2023-04-25T16:43:09;5.28;;;3.75;;
30707;SDS011;17458;48.958;8.284;2023-04-25T16:45:53;7.00;;;4.97;;
30707;SDS011;17458;48.958;8.284;2023-04-25T16:48:37;9.52;;;4.28;;
30707;SDS011;17458;48.958;8.284;2023-04-25T16:51:21;8.18;;;4.32;;
30707;SDS011;17458;48.958;8.284;2023-04-25T16:54:05;5.32;;;4.35;;